Terminal Aerodrome Forecast
Issued by NWS Jacksonville, FL

Home | Current Version | Previous Version | Text Only | Print | Product List | Glossary On
Versions: 1 2 3 4 5 6 7 8 9 10 11 12 13 14 15 16 17 18 19 20
465
FTUS42 KJAX 140538
TAFSSI
TAF
KSSI 140538Z 1406/1506 VRB04KT P6SM SKC
     FM141400 05014G21KT P6SM BKN250
     FM142000 06014G21KT P6SM BKN030 BKN250
     FM150000 05008KT P6SM VCSH SCT007 OVC015=

USA.gov is the U.S. government's official web portal to all federal, state and local government web resources and services.